createdAt,value
2019-03-31T00:00:51.606Z,5.14
2019-03-31T00:03:22.330Z,5.24
2019-03-31T00:05:52.964Z,5.14
2019-03-31T00:08:23.804Z,5.06
2019-03-31T00:10:56.214Z,5.00
2019-03-31T00:13:27.218Z,5.01
2019-03-31T00:15:58.150Z,4.97
2019-03-31T00:18:28.997Z,4.91
2019-03-31T00:20:59.941Z,4.75
2019-03-31T00:23:30.462Z,4.60
2019-03-31T00:26:01.326Z,4.50
2019-03-31T00:28:35.158Z,4.38
2019-03-31T00:31:06.278Z,4.25
2019-03-31T00:33:36.987Z,4.23
2019-03-31T00:36:09.344Z,4.15
2019-03-31T00:38:40.491Z,4.06
2019-03-31T00:41:11.442Z,4.00
2019-03-31T00:43:42.228Z,4.01
2019-03-31T00:46:13.008Z,4.26
2019-03-31T00:48:43.831Z,4.31
2019-03-31T00:51:15.011Z,4.25
2019-03-31T00:53:45.912Z,4.16
2019-03-31T00:56:16.650Z,4.03
2019-03-31T00:58:47.586Z,3.94
2019-03-31T01:01:19.982Z,3.90
2019-03-31T01:03:50.511Z,3.83
2019-03-31T01:06:22.325Z,3.82
2019-03-31T01:08:53.191Z,3.79
2019-03-31T01:11:24.526Z,3.88
2019-03-31T01:13:55.173Z,3.93
2019-03-31T01:16:25.936Z,3.90
2019-03-31T01:18:57.044Z,3.82
2019-03-31T01:21:27.989Z,3.75
2019-03-31T01:23:58.818Z,3.79
2019-03-31T01:26:29.755Z,3.80
2019-03-31T01:29:00.716Z,3.72
2019-03-31T01:31:31.226Z,3.78
2019-03-31T01:34:02.164Z,3.82
2019-03-31T01:36:33.099Z,3.81
2019-03-31T01:39:04.448Z,3.83
2019-03-31T01:41:35.106Z,3.76
2019-03-31T01:44:05.709Z,3.74
2019-03-31T01:46:36.595Z,3.79
2019-03-31T01:49:07.485Z,3.80
2019-03-31T01:51:38.318Z,3.75
2019-03-31T01:54:09.073Z,3.81
2019-03-31T01:56:39.912Z,3.76
2019-03-31T01:59:10.722Z,3.76
2019-03-31T02:01:41.965Z,3.73
2019-03-31T02:04:12.521Z,3.68
2019-03-31T02:06:43.435Z,3.77
2019-03-31T02:09:14.372Z,3.81
2019-03-31T02:11:45.312Z,3.92
2019-03-31T02:14:17.725Z,3.83
2019-03-31T02:16:48.840Z,3.72
2019-03-31T02:19:19.570Z,3.67
2019-03-31T02:21:50.506Z,3.68
2019-03-31T02:24:21.438Z,3.63
2019-03-31T02:26:52.377Z,3.62
2019-03-31T02:29:23.334Z,3.61
2019-03-31T02:31:54.154Z,3.53
2019-03-31T02:34:25.304Z,3.56
2019-03-31T02:36:56.336Z,3.63
2019-03-31T02:39:27.177Z,3.63
2019-03-31T02:41:58.210Z,3.53
2019-03-31T02:44:29.148Z,3.46
2019-03-31T02:46:59.888Z,3.41
2019-03-31T02:49:30.513Z,3.30
2019-03-31T02:52:01.451Z,3.28
2019-03-31T02:54:32.199Z,3.32
2019-03-31T02:57:03.025Z,3.29
2019-03-31T02:59:33.777Z,3.30
2019-03-31T03:02:04.604Z,3.54
2019-03-31T03:04:35.025Z,3.51
2019-03-31T03:07:06.061Z,3.46
2019-03-31T03:09:36.902Z,3.41
2019-03-31T03:12:09.488Z,3.32
2019-03-31T03:14:40.242Z,3.29
2019-03-31T03:17:11.121Z,3.26
2019-03-31T03:19:42.087Z,3.22
2019-03-31T03:22:12.916Z,3.27
2019-03-31T03:24:43.873Z,3.34
2019-03-31T03:27:14.908Z,3.50
2019-03-31T03:29:45.733Z,3.50
2019-03-31T03:32:17.068Z,3.42
2019-03-31T03:34:47.941Z,3.37
2019-03-31T03:37:18.876Z,3.38
2019-03-31T03:39:49.605Z,3.49
2019-03-31T03:42:20.538Z,3.54
2019-03-31T03:44:51.570Z,3.61
2019-03-31T03:47:22.413Z,3.65
2019-03-31T03:49:53.257Z,3.72
2019-03-31T03:52:24.188Z,3.88
2019-03-31T03:54:55.439Z,4.13
2019-03-31T03:57:26.355Z,4.37
2019-03-31T03:59:57.420Z,4.50
2019-03-31T04:02:28.242Z,4.74
2019-03-31T04:04:59.488Z,4.87
2019-03-31T04:07:30.122Z,4.92
2019-03-31T04:10:01.128Z,5.01
2019-03-31T04:12:32.213Z,5.12
2019-03-31T04:15:02.741Z,5.21
2019-03-31T04:17:33.780Z,5.48
2019-03-31T04:20:05.642Z,5.71
2019-03-31T04:22:36.165Z,5.83
2019-03-31T04:25:07.063Z,5.92
2019-03-31T04:27:38.034Z,6.01
2019-03-31T04:30:09.079Z,6.12
2019-03-31T04:32:40.022Z,6.28
2019-03-31T04:35:10.999Z,6.37
2019-03-31T04:37:42.807Z,6.51
2019-03-31T04:40:13.439Z,6.67
2019-03-31T04:42:44.209Z,6.85
2019-03-31T04:45:15.023Z,6.97
2019-03-31T04:47:45.672Z,7.39
2019-03-31T04:50:16.480Z,8.38
2019-03-31T04:52:47.320Z,9.88
2019-03-31T04:55:18.157Z,11.18
2019-03-31T04:57:48.884Z,11.78
2019-03-31T05:00:19.312Z,12.43
2019-03-31T05:02:50.146Z,12.01
2019-03-31T05:05:21.084Z,13.00
2019-03-31T05:07:52.127Z,12.85
2019-03-31T05:10:23.160Z,13.39
2019-03-31T05:12:54.113Z,13.82
2019-03-31T05:15:25.153Z,13.24
2019-03-31T05:17:56.015Z,13.45
2019-03-31T05:20:29.063Z,12.82
2019-03-31T05:22:59.955Z,12.72
2019-03-31T05:25:30.841Z,12.94
2019-03-31T05:28:01.687Z,14.19
2019-03-31T05:30:34.366Z,14.42
2019-03-31T05:33:05.300Z,13.82
2019-03-31T05:35:36.382Z,12.67
2019-03-31T05:38:07.175Z,11.66
2019-03-31T05:40:38.006Z,11.31
2019-03-31T05:43:08.876Z,10.90
2019-03-31T05:45:39.374Z,10.46
2019-03-31T05:48:13.075Z,10.45
2019-03-31T05:50:44.031Z,10.24
2019-03-31T05:53:14.950Z,10.40
2019-03-31T05:55:45.890Z,10.66
2019-03-31T05:58:16.628Z,10.64
2019-03-31T06:00:47.359Z,10.94
2019-03-31T06:03:18.197Z,10.96
2019-03-31T06:05:49.027Z,10.79
2019-03-31T06:08:20.073Z,11.01
2019-03-31T06:10:51.015Z,10.65
2019-03-31T06:13:21.872Z,10.96
2019-03-31T06:15:52.607Z,10.82
2019-03-31T06:18:23.355Z,10.91
2019-03-31T06:20:54.039Z,10.77
2019-03-31T06:23:24.885Z,10.76
2019-03-31T06:25:55.785Z,10.87
2019-03-31T06:28:26.691Z,11.08
2019-03-31T06:30:57.078Z,11.28
2019-03-31T06:33:27.921Z,10.84
2019-03-31T06:35:58.861Z,11.24
2019-03-31T06:38:29.695Z,11.37
2019-03-31T06:41:00.659Z,11.53
2019-03-31T06:43:31.270Z,11.42
2019-03-31T06:46:02.097Z,11.40
2019-03-31T06:48:33.041Z,11.68
2019-03-31T06:51:03.776Z,11.39
2019-03-31T06:53:34.497Z,11.48
2019-03-31T06:56:05.341Z,11.49
2019-03-31T06:58:36.375Z,11.59
2019-03-31T07:01:07.214Z,11.68
2019-03-31T07:03:38.162Z,11.56
2019-03-31T07:06:09.105Z,11.62
2019-03-31T07:08:40.040Z,11.72
2019-03-31T07:11:10.881Z,11.77
2019-03-31T07:13:41.599Z,11.58
2019-03-31T07:16:12.741Z,11.53
2019-03-31T07:18:43.698Z,11.69
2019-03-31T07:21:14.621Z,11.44
2019-03-31T07:23:45.352Z,11.65
2019-03-31T07:26:16.488Z,11.82
2019-03-31T07:28:47.435Z,11.60
2019-03-31T07:31:18.271Z,11.76
2019-03-31T07:33:49.206Z,11.91
2019-03-31T07:36:20.056Z,11.98
2019-03-31T07:38:51.098Z,11.89
2019-03-31T07:41:22.243Z,12.16
2019-03-31T07:43:53.476Z,11.88
2019-03-31T07:46:24.016Z,11.76
2019-03-31T07:48:54.950Z,11.95
2019-03-31T07:51:25.678Z,12.12
2019-03-31T07:53:56.731Z,12.23
2019-03-31T07:56:27.871Z,12.28
2019-03-31T07:58:58.678Z,12.15
2019-03-31T08:01:29.637Z,12.33
2019-03-31T08:04:00.393Z,12.21
2019-03-31T08:06:31.309Z,12.18
2019-03-31T08:09:02.139Z,11.80
2019-03-31T08:11:33.026Z,12.07
2019-03-31T08:14:05.362Z,12.17
2019-03-31T08:16:35.976Z,12.35
2019-03-31T08:19:06.715Z,12.28
2019-03-31T08:21:37.480Z,12.44
2019-03-31T08:24:08.388Z,12.20
2019-03-31T08:26:39.223Z,12.30
2019-03-31T08:29:10.052Z,12.60
2019-03-31T08:31:40.897Z,12.77
2019-03-31T08:34:11.830Z,12.62
2019-03-31T08:36:42.765Z,12.71
2019-03-31T08:39:13.931Z,12.69
2019-03-31T08:41:45.183Z,12.73
2019-03-31T08:44:15.915Z,12.83
2019-03-31T08:46:46.728Z,12.79
2019-03-31T08:49:17.565Z,13.02
2019-03-31T08:51:48.518Z,13.00
2019-03-31T08:54:19.339Z,13.22
2019-03-31T08:56:50.173Z,13.29
2019-03-31T08:59:21.114Z,13.28
2019-03-31T09:01:52.160Z,13.21
2019-03-31T09:04:22.988Z,13.35
2019-03-31T09:06:54.021Z,13.43
2019-03-31T09:09:24.661Z,13.45
2019-03-31T09:11:55.606Z,13.58
2019-03-31T09:14:26.348Z,13.48
2019-03-31T09:16:57.168Z,13.47
2019-03-31T09:19:27.816Z,13.55
2019-03-31T09:21:58.608Z,13.62
2019-03-31T09:24:29.757Z,13.66
2019-03-31T09:27:00.722Z,13.69
2019-03-31T09:29:31.675Z,13.81
2019-03-31T09:32:02.573Z,13.88
2019-03-31T09:34:33.533Z,13.76
2019-03-31T09:37:04.383Z,13.74
2019-03-31T09:39:35.212Z,13.91
2019-03-31T09:42:05.998Z,13.88
2019-03-31T09:44:36.779Z,13.93
2019-03-31T09:47:07.607Z,13.99
2019-03-31T09:49:38.545Z,14.01
2019-03-31T09:52:09.488Z,14.07
2019-03-31T09:54:40.421Z,14.14
2019-03-31T09:57:11.369Z,14.08
2019-03-31T09:59:42.303Z,13.88
2019-03-31T10:02:13.254Z,14.00
2019-03-31T10:16:07.193Z,14.14
2019-03-31T10:18:37.956Z,14.38
2019-03-31T10:21:08.761Z,14.25
2019-03-31T10:23:39.598Z,14.22
2019-03-31T10:26:10.529Z,14.10
2019-03-31T10:28:41.480Z,14.10
2019-03-31T10:31:12.415Z,14.26
2019-03-31T10:33:43.345Z,14.28
2019-03-31T10:36:14.084Z,14.47
2019-03-31T10:38:45.021Z,14.69
2019-03-31T10:41:15.862Z,14.68
2019-03-31T10:43:46.710Z,14.73
2019-03-31T10:46:17.520Z,14.63
2019-03-31T10:48:48.373Z,14.61
2019-03-31T10:51:19.097Z,14.73
2019-03-31T10:53:49.844Z,14.73
2019-03-31T10:56:20.579Z,14.70
2019-03-31T10:58:51.091Z,14.77
2019-03-31T11:01:22.043Z,14.73
2019-03-31T11:03:52.973Z,14.79
2019-03-31T11:06:23.802Z,14.93
2019-03-31T11:08:54.626Z,14.94
2019-03-31T11:11:25.695Z,15.06
2019-03-31T11:13:56.511Z,15.23
2019-03-31T11:16:27.465Z,15.24
2019-03-31T11:18:58.397Z,15.10
2019-03-31T11:21:31.417Z,15.08
2019-03-31T11:24:03.996Z,15.13
2019-03-31T11:26:59.161Z,15.28
2019-03-31T11:29:29.790Z,15.38
2019-03-31T11:32:00.629Z,15.27
2019-03-31T11:34:31.461Z,15.09
2019-03-31T11:37:13.025Z,15.02
2019-03-31T11:39:34.684Z,15.17
2019-03-31T11:42:05.423Z,15.24
2019-03-31T11:44:36.248Z,15.43
2019-03-31T11:47:07.076Z,15.57
2019-03-31T11:49:37.921Z,15.60
2019-03-31T11:52:08.783Z,15.53
2019-03-31T11:54:39.735Z,15.52
2019-03-31T11:57:10.428Z,15.49
2019-03-31T11:59:41.255Z,15.47
2019-03-31T12:02:26.052Z,15.67
2019-03-31T12:04:44.477Z,15.84
2019-03-31T12:07:27.278Z,15.90
2019-03-31T12:09:52.380Z,15.75
2019-03-31T12:12:23.218Z,15.78
2019-03-31T12:15:00.215Z,15.76
2019-03-31T12:17:26.261Z,15.70
2019-03-31T12:19:57.059Z,15.72
2019-03-31T12:22:27.806Z,15.87
2019-03-31T12:24:58.522Z,15.85
2019-03-31T12:27:29.362Z,15.83
2019-03-31T12:30:03.281Z,15.94
2019-03-31T12:32:33.804Z,15.83
2019-03-31T12:35:06.647Z,15.78
2019-03-31T12:37:42.839Z,15.88
2019-03-31T12:40:33.502Z,15.91
2019-03-31T12:43:04.487Z,15.90
2019-03-31T12:45:35.231Z,16.01
2019-03-31T12:48:06.262Z,15.84
2019-03-31T12:50:37.095Z,15.91
2019-03-31T12:53:08.036Z,15.83
2019-03-31T12:55:38.800Z,15.83
2019-03-31T12:58:09.835Z,15.98
2019-03-31T13:00:40.649Z,16.01
2019-03-31T13:03:11.478Z,16.08
2019-03-31T13:05:42.761Z,16.01
2019-03-31T13:08:13.467Z,16.02
2019-03-31T13:10:44.210Z,15.94
2019-03-31T13:13:15.030Z,15.93
2019-03-31T13:15:45.903Z,15.85
2019-03-31T13:18:16.816Z,15.84
2019-03-31T13:21:00.466Z,15.96
2019-03-31T13:23:30.900Z,16.04
2019-03-31T13:26:01.392Z,16.19
2019-03-31T13:28:32.129Z,16.19
2019-03-31T13:31:02.663Z,16.15
2019-03-31T13:33:33.225Z,16.18
2019-03-31T13:36:03.652Z,16.07
2019-03-31T13:38:34.146Z,16.08
2019-03-31T13:41:04.909Z,16.07
2019-03-31T13:43:35.601Z,16.03
2019-03-31T13:46:06.515Z,15.93
2019-03-31T13:48:37.362Z,16.09
2019-03-31T13:51:08.939Z,16.01
2019-03-31T13:53:39.491Z,15.85
2019-03-31T13:56:10.434Z,15.87
2019-03-31T13:58:41.691Z,15.95
2019-03-31T14:01:12.796Z,16.00
2019-03-31T14:03:43.599Z,15.95
2019-03-31T14:06:14.344Z,16.14
2019-03-31T14:08:44.794Z,16.03
2019-03-31T14:11:15.243Z,15.93
2019-03-31T14:13:45.691Z,15.70
2019-03-31T14:16:16.445Z,15.60
2019-03-31T14:18:46.901Z,15.63
2019-03-31T14:21:17.768Z,15.55
2019-03-31T14:23:50.268Z,15.57
2019-03-31T14:26:21.187Z,15.68
2019-03-31T14:28:52.151Z,15.62
2019-03-31T14:31:23.133Z,15.48
2019-03-31T14:33:54.066Z,15.40
2019-03-31T14:36:25.006Z,15.31
2019-03-31T14:38:55.760Z,15.34
2019-03-31T14:41:26.681Z,15.38
2019-03-31T14:43:57.470Z,15.43
2019-03-31T14:46:28.549Z,15.24
2019-03-31T14:48:59.395Z,15.19
2019-03-31T14:51:30.742Z,15.07
2019-03-31T14:54:01.493Z,14.83
2019-03-31T14:56:31.899Z,14.77
2019-03-31T14:59:02.841Z,14.74
2019-03-31T15:01:33.469Z,14.86
2019-03-31T15:04:04.556Z,14.82
2019-03-31T15:06:35.498Z,14.74
2019-03-31T15:09:08.692Z,14.84
2019-03-31T15:11:42.350Z,14.75
2019-03-31T15:14:14.710Z,14.83
2019-03-31T15:16:48.282Z,14.67
2019-03-31T15:19:18.570Z,14.71
2019-03-31T15:21:49.903Z,14.81
2019-03-31T15:24:20.752Z,14.65
2019-03-31T15:26:52.070Z,14.53
2019-03-31T15:29:23.427Z,14.53
2019-03-31T15:31:54.384Z,14.45
2019-03-31T15:34:25.116Z,14.52
2019-03-31T15:36:55.938Z,14.29
2019-03-31T15:39:30.524Z,14.07
2019-03-31T15:42:01.379Z,13.99
2019-03-31T15:44:31.908Z,14.08
2019-03-31T15:47:02.389Z,13.99
2019-03-31T15:49:33.222Z,13.84
2019-03-31T15:52:04.167Z,13.81
2019-03-31T15:54:35.045Z,13.69
2019-03-31T15:57:05.898Z,13.60
2019-03-31T15:59:38.436Z,13.52
2019-03-31T16:02:09.398Z,13.49
2019-03-31T16:04:42.184Z,13.29
2019-03-31T16:07:13.636Z,13.32
2019-03-31T16:09:44.773Z,13.27
2019-03-31T16:12:15.615Z,13.09
2019-03-31T16:14:46.448Z,12.92
2019-03-31T16:17:17.304Z,12.93
2019-03-31T16:19:48.431Z,12.74
2019-03-31T16:22:19.179Z,12.66
2019-03-31T16:24:54.474Z,12.78
2019-03-31T16:27:27.071Z,12.58
2019-03-31T16:29:58.220Z,12.62
2019-03-31T16:32:28.936Z,12.46
2019-03-31T16:34:59.807Z,12.48
2019-03-31T16:37:30.738Z,12.43
2019-03-31T16:40:01.569Z,12.31
2019-03-31T16:42:32.100Z,12.32
2019-03-31T16:45:02.965Z,12.18
2019-03-31T16:47:33.608Z,12.22
2019-03-31T16:50:06.129Z,12.04
2019-03-31T16:52:36.616Z,11.95
2019-03-31T16:55:07.023Z,11.83
2019-03-31T16:57:37.502Z,11.93
2019-03-31T17:00:08.878Z,11.87
2019-03-31T17:02:39.408Z,11.74
2019-03-31T17:05:21.736Z,11.71
2019-03-31T17:07:42.824Z,11.74
2019-03-31T17:10:13.873Z,11.65
2019-03-31T17:12:44.791Z,11.51
2019-03-31T17:15:15.730Z,11.40
2019-03-31T17:17:46.668Z,11.34
2019-03-31T17:20:17.755Z,11.36
2019-03-31T17:22:48.622Z,11.31
2019-03-31T17:25:19.602Z,11.21
2019-03-31T17:27:50.523Z,11.10
2019-03-31T17:30:21.356Z,11.04
2019-03-31T17:32:51.997Z,11.12
2019-03-31T17:35:22.863Z,10.95
2019-03-31T17:37:53.495Z,10.93
2019-03-31T17:40:24.414Z,10.82
2019-03-31T17:42:55.332Z,10.71
2019-03-31T17:45:26.271Z,10.61
2019-03-31T17:47:57.729Z,10.68
2019-03-31T17:50:31.671Z,10.63
2019-03-31T17:53:10.490Z,10.69
2019-03-31T17:55:41.157Z,10.66
2019-03-31T17:58:11.816Z,10.58
2019-03-31T18:00:42.978Z,10.58
2019-03-31T18:03:15.745Z,10.49
2019-03-31T18:05:46.583Z,10.50
2019-03-31T18:08:17.350Z,10.39
2019-03-31T18:10:47.931Z,10.36
2019-03-31T18:13:18.883Z,10.35
2019-03-31T18:15:49.416Z,10.26
2019-03-31T18:18:20.349Z,10.12
2019-03-31T18:20:51.398Z,10.07
2019-03-31T18:23:22.432Z,10.11
2019-03-31T18:25:53.372Z,10.13
2019-03-31T18:28:24.406Z,10.01
2019-03-31T18:30:55.662Z,10.05
2019-03-31T18:33:26.284Z,10.02
2019-03-31T18:35:58.728Z,10.08
2019-03-31T18:38:29.192Z,10.06
2019-03-31T18:41:03.494Z,9.96
2019-03-31T18:43:32.811Z,9.93
2019-03-31T18:46:03.783Z,9.89
2019-03-31T18:48:34.647Z,9.94
2019-03-31T18:51:05.321Z,9.88
2019-03-31T18:53:37.787Z,9.77
2019-03-31T18:56:12.624Z,9.86
2019-03-31T18:59:01.149Z,9.87
2019-03-31T19:01:49.819Z,9.79
2019-03-31T19:04:22.294Z,9.67
2019-03-31T19:06:54.542Z,9.70
2019-03-31T19:09:29.929Z,9.61
2019-03-31T19:12:18.780Z,9.67
2019-03-31T19:15:00.381Z,9.64
2019-03-31T19:17:35.717Z,9.77
2019-03-31T19:20:15.871Z,9.80
2019-03-31T19:22:51.698Z,9.73
2019-03-31T19:25:38.968Z,9.73
2019-03-31T19:28:14.104Z,9.94
2019-03-31T19:31:01.360Z,9.75
2019-03-31T19:33:33.854Z,9.63
2019-03-31T19:36:21.581Z,9.63
2019-03-31T19:38:56.942Z,9.83
2019-03-31T19:41:32.165Z,9.75
2019-03-31T19:44:04.399Z,9.66
2019-03-31T19:46:46.738Z,9.65
2019-03-31T19:49:19.215Z,9.80
2019-03-31T19:52:23.821Z,9.82
2019-03-31T19:55:01.298Z,9.90
2019-03-31T19:57:35.164Z,9.72
2019-03-31T20:00:25.031Z,9.57
2019-03-31T20:02:57.455Z,9.54
2019-03-31T20:05:38.577Z,9.75
2019-03-31T20:08:11.261Z,9.92
2019-03-31T20:10:46.490Z,9.83
2019-03-31T20:13:37.193Z,9.72
2019-03-31T20:16:18.152Z,9.61
2019-03-31T20:18:53.840Z,9.56
2019-03-31T20:21:38.229Z,9.48
2019-03-31T20:24:10.651Z,9.39
2019-03-31T20:26:48.858Z,9.37
2019-03-31T20:29:27.103Z,9.30
2019-03-31T20:32:01.794Z,9.24
2019-03-31T20:34:42.876Z,9.29
2019-03-31T20:37:17.905Z,9.43
2019-03-31T20:39:56.869Z,9.36
2019-03-31T20:42:30.647Z,9.40
2019-03-31T20:45:01.468Z,9.66
2019-03-31T20:47:32.199Z,9.62
2019-03-31T20:50:03.043Z,9.72
2019-03-31T20:52:33.973Z,9.84
2019-03-31T20:55:16.068Z,9.84
2019-03-31T20:57:37.527Z,9.80
2019-03-31T21:00:08.560Z,9.84
2019-03-31T21:02:39.290Z,9.85
2019-03-31T21:05:10.110Z,9.66
2019-03-31T21:07:41.139Z,9.80
2019-03-31T21:10:11.671Z,9.71
2019-03-31T21:12:42.626Z,9.70
2019-03-31T21:15:14.572Z,9.59
2019-03-31T21:17:45.414Z,9.51
2019-03-31T21:20:16.346Z,9.55
2019-03-31T21:22:46.768Z,9.41
2019-03-31T21:25:17.603Z,9.47
2019-03-31T21:27:48.517Z,9.58
2019-03-31T21:30:19.484Z,9.71
2019-03-31T21:32:50.212Z,9.70
2019-03-31T21:35:20.988Z,9.52
2019-03-31T21:37:51.999Z,9.30
2019-03-31T21:40:22.934Z,9.17
2019-03-31T21:42:53.971Z,9.06
2019-03-31T21:45:24.929Z,9.03
2019-03-31T21:47:55.956Z,8.95
2019-03-31T21:50:27.097Z,9.01
2019-03-31T21:52:57.723Z,8.96
2019-03-31T21:55:28.667Z,8.80
2019-03-31T21:57:59.400Z,8.84
2019-03-31T22:00:37.917Z,8.78
2019-03-31T22:03:08.855Z,8.89
2019-03-31T22:05:39.691Z,8.94
2019-03-31T22:08:10.722Z,8.91
2019-03-31T22:10:41.668Z,8.65
2019-03-31T22:13:12.506Z,8.55
2019-03-31T22:15:43.175Z,8.46
2019-03-31T22:18:13.771Z,8.56
2019-03-31T22:20:47.295Z,8.99
2019-03-31T22:23:16.819Z,8.94
2019-03-31T22:25:47.637Z,8.68
2019-03-31T22:28:18.244Z,8.60
2019-03-31T22:30:49.176Z,8.45
2019-03-31T22:33:20.014Z,8.33
2019-03-31T22:36:08.465Z,8.35
2019-03-31T22:38:39.403Z,8.40
2019-03-31T22:41:10.328Z,8.27
2019-03-31T22:43:41.517Z,8.10
2019-03-31T22:46:12.366Z,7.91
2019-03-31T22:48:43.247Z,8.00
2019-03-31T22:51:14.085Z,8.06
2019-03-31T22:53:45.027Z,8.14
2019-03-31T22:56:15.958Z,7.95
2019-03-31T22:58:46.915Z,7.95
2019-03-31T23:01:17.943Z,8.06
2019-03-31T23:03:48.781Z,7.86
2019-03-31T23:06:19.447Z,7.87
2019-03-31T23:08:50.249Z,7.97
2019-03-31T23:11:20.990Z,8.04
2019-03-31T23:13:51.926Z,7.78
2019-03-31T23:16:22.750Z,7.78
2019-03-31T23:18:53.142Z,7.79
2019-03-31T23:21:23.928Z,7.91
2019-03-31T23:23:54.954Z,7.87
2019-03-31T23:26:25.896Z,7.75
2019-03-31T23:28:56.436Z,7.85
2019-03-31T23:31:27.421Z,7.93
2019-03-31T23:33:57.933Z,8.06
2019-03-31T23:36:28.866Z,8.01
2019-03-31T23:38:59.561Z,8.04
2019-03-31T23:41:30.493Z,8.06
2019-03-31T23:44:01.543Z,7.99
2019-03-31T23:46:32.375Z,7.80
2019-03-31T23:49:03.311Z,7.87
2019-03-31T23:51:34.247Z,7.68
2019-03-31T23:54:04.877Z,7.75
2019-03-31T23:56:35.527Z,7.59
2019-03-31T23:59:06.348Z,7.66
